Time;durP1;ratioP1;P1;durP2;ratioP2;P2;SDS_P1;SDS_P2;PMS_P1;PMS_P2;Temp;Humidity;BMP_temperature;BMP_pressure;BME280_temperature;BME280_humidity;BME280_pressure;Samples;Min_cycle;Max_cycle;Signal;HPM_P1;HPM_P2
2022/10/04 00:00:24;;;;;;;9.43;9.03;;;;;;;10.20;70.89;93044.22;5145477;27;20248;-77
2022/10/04 00:02:50;;;;;;;9.63;9.23;;;;;;;10.19;71.60;93040.84;5129232;28;20227;-77
2022/10/04 00:05:21;;;;;;;9.27;8.87;;;;;;;10.25;71.39;93039.78;5128513;28;20199;-75
2022/10/04 00:07:52;;;;;;;10.37;9.40;;;;;;;10.26;71.97;93036.13;5127647;28;20279;-76
2022/10/04 00:10:17;;;;;;;10.00;9.50;;;;;;;10.17;72.48;93036.94;5128870;28;20231;-76
2022/10/04 00:12:49;;;;;;;9.07;8.77;;;;;;;10.17;72.70;93037.72;5128412;28;20220;-76
2022/10/04 00:15:21;;;;;;;9.37;8.97;;;;;;;9.95;73.11;93026.78;5128389;28;20195;-76
2022/10/04 00:18:18;;;;;;;9.10;8.70;;;;;;;10.00;72.99;93037.22;5128238;28;20223;-76
2022/10/04 00:20:49;;;;;;;8.70;8.30;;;;;;;9.99;73.86;93035.66;5127170;28;20198;-75
2022/10/04 00:23:23;;;;;;;9.27;8.53;;;;;;;9.97;73.72;93048.19;5128431;28;20257;-75
2022/10/04 00:25:57;;;;;;;9.07;8.47;;;;;;;9.86;73.30;93030.97;5125998;28;20199;-75
2022/10/04 00:28:25;;;;;;;8.77;8.37;;;;;;;10.05;73.00;93046.84;5128010;28;20231;-75
2022/10/04 00:31:21;;;;;;;9.47;8.87;;;;;;;9.97;72.09;93040.34;5127778;28;20175;-75
2022/10/04 00:33:49;;;;;;;9.83;9.43;;;;;;;10.03;71.91;93033.28;5127119;28;20234;-75
2022/10/04 00:36:52;;;;;;;9.23;8.73;;;;;;;10.06;71.23;93030.94;5128047;28;20256;-76
2022/10/04 00:39:24;;;;;;;8.53;8.23;;;;;;;9.86;71.38;92996.28;5125509;28;20223;-76
2022/10/04 00:41:49;;;;;;;9.73;9.13;;;;;;;10.07;71.98;93016.88;5128561;28;21048;-76
2022/10/04 00:44:36;;;;;;;8.73;8.33;;;;;;;10.01;71.86;93014.53;5128148;28;20183;-76
2022/10/04 00:47:12;;;;;;;10.20;9.60;;;;;;;9.80;70.54;92990.31;5129600;28;20227;-75
2022/10/04 00:49:41;;;;;;;8.33;7.83;;;;;;;9.78;70.78;92976.75;5131091;28;20191;-75
2022/10/04 00:52:14;;;;;;;8.73;8.43;;;;;;;9.90;71.72;93011.13;5132219;28;20246;-75
2022/10/04 00:54:53;;;;;;;9.30;8.97;;;;;;;9.64;70.97;92986.94;5129638;28;20205;-75
2022/10/04 00:57:24;;;;;;;8.90;8.60;;;;;;;9.75;70.21;92996.31;5132088;28;20317;-75
2022/10/04 01:00:03;;;;;;;8.50;8.10;;;;;;;9.65;70.68;92977.28;5131829;28;20324;-75
2022/10/04 01:02:51;;;;;;;9.07;8.60;;;;;;;9.56;71.34;92971.06;5131142;28;20233;-75
2022/10/04 01:05:19;;;;;;;7.83;7.53;;;;;;;9.64;70.87;92986.16;5132689;27;20206;-75
2022/10/04 01:08:05;;;;;;;8.20;7.90;;;;;;;9.53;71.49;92974.19;5130802;28;20215;-76
2022/10/04 01:10:35;;;;;;;9.17;8.47;;;;;;;9.42;70.98;92975.22;5129991;28;20258;-76
2022/10/04 01:13:12;;;;;;;8.87;8.47;;;;;;;9.35;72.33;92972.13;5131580;28;20272;-76
2022/10/04 01:15:37;;;;;;;9.67;9.17;;;;;;;9.54;72.62;92986.19;5131549;28;20179;-75
2022/10/04 01:18:10;;;;;;;9.17;8.87;;;;;;;9.39;72.42;92994.78;5131692;28;20220;-76
2022/10/04 01:20:49;;;;;;;9.07;8.67;;;;;;;9.52;71.29;92988.28;5130498;27;20184;-75
2022/10/04 01:23:33;;;;;;;8.87;8.47;;;;;;;9.50;72.70;92991.13;5128970;28;20287;-75
2022/10/04 01:25:58;;;;;;;9.10;8.67;;;;;;;9.54;70.96;92988.78;5130929;28;20205;-75
2022/10/04 01:28:25;;;;;;;8.87;8.50;;;;;;;9.60;70.29;92992.97;5129307;28;20279;-73
2022/10/04 01:30:51;;;;;;;8.30;8.00;;;;;;;9.43;70.79;92951.53;5131526;27;20184;-75
2022/10/04 01:33:17;;;;;;;9.70;9.30;;;;;;;9.56;69.99;92995.31;5131151;28;20219;-75
2022/10/04 01:35:43;;;;;;;8.90;8.50;;;;;;;9.52;69.90;92983.84;5131959;28;20187;-75
2022/10/04 01:38:10;;;;;;;9.57;9.07;;;;;;;9.46;70.17;92978.91;5129648;28;20219;-76
2022/10/04 01:40:45;;;;;;;8.63;8.23;;;;;;;9.44;71.02;92999.22;5130618;28;20187;-75
2022/10/04 01:43:15;;;;;;;9.90;9.50;;;;;;;9.35;70.52;92982.53;5128926;27;20230;-75
2022/10/04 01:45:57;;;;;;;8.90;8.50;;;;;;;9.40;70.58;92982.56;5130941;28;20188;-76
2022/10/04 01:48:28;;;;;;;8.70;8.17;;;;;;;9.29;71.53;92973.19;5129047;27;20235;-75
2022/10/04 01:51:16;;;;;;;8.43;8.13;;;;;;;9.34;70.30;92980.97;5131279;28;20198;-77
2022/10/04 01:53:50;;;;;;;9.93;9.53;;;;;;;9.39;69.99;92979.16;5129838;28;20219;-76
2022/10/04 01:56:23;;;;;;;9.70;9.10;;;;;;;9.31;69.38;92976.28;5131548;28;20196;-76
2022/10/04 01:58:58;;;;;;;9.10;8.80;;;;;;;9.35;69.12;92972.88;5130269;28;20223;-76
2022/10/04 02:01:52;;;;;;;8.47;8.13;;;;;;;9.32;68.91;92963.00;5130537;28;20190;-75
2022/10/04 02:04:22;;;;;;;9.43;8.93;;;;;;;9.17;70.53;92954.41;5124083;28;20253;-76
2022/10/04 02:06:53;;;;;;;9.80;9.30;;;;;;;9.23;71.13;92971.63;5143260;27;20222;-75
2022/10/04 02:09:22;;;;;;;8.37;8.07;;;;;;;9.26;70.36;92984.13;5129095;28;20251;-76
2022/10/04 02:11:52;;;;;;;9.63;8.80;;;;;;;9.39;70.13;92988.78;5130014;27;20216;-75
2022/10/04 02:14:23;;;;;;;9.17;8.70;;;;;;;9.39;70.82;92994.00;5129773;28;21825;-75
2022/10/04 02:16:52;;;;;;;8.57;8.17;;;;;;;9.37;71.14;93003.94;5129818;28;20190;-75
2022/10/04 02:19:21;;;;;;;8.43;8.13;;;;;;;9.32;72.05;93002.06;5129903;28;20228;-75
2022/10/04 02:21:47;;;;;;;12.43;10.60;;;;;;;9.40;72.36;93008.59;5128553;27;20180;-79
2022/10/04 02:24:13;;;;;;;9.77;9.30;;;;;;;9.20;73.22;92995.56;5128134;28;20207;-82
2022/10/04 02:26:39;;;;;;;9.13;8.63;;;;;;;9.44;73.24;93007.81;5128830;28;20197;-81
2022/10/04 02:29:04;;;;;;;9.57;9.07;;;;;;;9.22;73.70;92975.25;5130979;28;20214;-80
2022/10/04 02:34:17;;;;;;;10.43;9.87;;;;;;;9.49;74.12;93012.25;5130015;27;20214;-80
2022/10/04 02:36:43;;;;;;;9.13;8.63;;;;;;;9.45;73.60;93008.59;5129452;28;20192;-80
2022/10/04 02:39:16;;;;;;;8.97;8.67;;;;;;;9.37;74.32;93007.28;5128904;28;20203;-80
2022/10/04 02:41:51;;;;;;;8.47;8.17;;;;;;;9.35;74.68;93019.78;5127815;28;20180;-81
2022/10/04 02:44:54;;;;;;;9.43;8.93;;;;;;;9.36;75.39;93023.97;5130533;28;20183;-81
2022/10/04 02:47:24;;;;;;;8.80;8.40;;;;;;;9.37;75.77;93024.78;5106300;28;20226;-81
2022/10/04 02:50:31;;;;;;;9.87;9.37;;;;;;;9.46;76.34;93023.19;5130015;28;20184;-80
2022/10/04 02:53:13;;;;;;;9.70;9.23;;;;;;;9.32;75.58;93014.34;5129033;28;21036;-80
2022/10/04 02:55:41;;;;;;;9.20;8.70;;;;;;;9.27;76.22;93025.53;5129992;27;21217;-80
2022/10/04 02:58:16;;;;;;;8.73;8.43;;;;;;;9.07;75.70;92996.88;5128884;28;20215;-82
2022/10/04 03:00:48;;;;;;;9.87;9.47;;;;;;;9.35;75.23;93024.22;5130182;28;20222;-81
2022/10/04 03:03:45;;;;;;;9.00;8.60;;;;;;;9.47;74.60;93035.19;5130230;28;20283;-81
2022/10/04 03:06:16;;;;;;;8.07;7.70;;;;;;;9.41;74.16;93023.97;5120774;28;20247;-80
2022/10/04 03:08:42;;;;;;;9.27;8.57;;;;;;;9.37;75.29;93043.00;5128826;28;20231;-80
2022/10/04 03:11:09;;;;;;;9.07;8.53;;;;;;;9.26;75.78;93008.31;5127716;28;20195;-80
2022/10/04 03:13:36;;;;;;;9.67;9.27;;;;;;;9.35;76.05;93032.06;5127736;28;20252;-81
2022/10/04 03:16:02;;;;;;;9.60;9.20;;;;;;;9.32;76.66;93022.91;5129554;28;20187;-80
2022/10/04 03:18:30;;;;;;;9.63;9.23;;;;;;;9.15;76.43;93013.81;5128752;28;20960;-81
2022/10/04 03:20:55;;;;;;;9.03;8.53;;;;;;;9.30;75.86;93029.44;5128187;28;20171;-80
2022/10/04 03:23:21;;;;;;;10.37;9.97;;;;;;;9.10;76.12;93019.78;5128898;28;20240;-81
2022/10/04 03:25:49;;;;;;;8.80;8.50;;;;;;;9.21;75.58;93029.16;5128167;28;20199;-81
2022/10/04 03:28:16;;;;;;;9.97;9.47;;;;;;;9.30;74.89;93052.88;5128903;28;20226;-82
2022/10/04 03:30:43;;;;;;;8.17;7.87;;;;;;;9.11;74.82;93016.16;5128789;28;20216;-80
2022/10/04 03:33:16;;;;;;;10.43;9.93;;;;;;;8.99;75.28;93020.03;5128701;28;20215;-80
2022/10/04 03:35:44;;;;;;;8.93;8.63;;;;;;;9.08;74.80;93041.91;5130171;28;20192;-81
2022/10/04 03:38:11;;;;;;;9.50;9.00;;;;;;;9.08;74.53;93028.88;5126728;28;20243;-81
2022/10/04 03:40:42;;;;;;;9.87;9.27;;;;;;;9.14;74.11;93043.47;5129040;28;20184;-80
2022/10/04 03:43:11;;;;;;;9.53;8.87;;;;;;;8.94;73.83;93015.59;5127121;28;20227;-79
2022/10/04 03:45:39;;;;;;;7.97;7.67;;;;;;;9.04;75.13;93025.25;5129395;28;20199;-81
2022/10/04 03:48:07;;;;;;;9.53;9.13;;;;;;;9.14;75.23;93046.09;5125751;28;20227;-80
2022/10/04 03:50:40;;;;;;;8.07;7.47;;;;;;;9.13;75.23;93047.13;5128333;28;20198;-80
2022/10/04 03:53:26;;;;;;;9.67;9.27;;;;;;;9.15;73.99;93042.47;5128938;28;20243;-80
2022/10/04 03:55:52;;;;;;;9.93;9.23;;;;;;;9.12;73.73;93030.72;5127366;28;20182;-80
2022/10/04 03:58:19;;;;;;;9.27;8.57;;;;;;;9.26;73.99;93057.81;5127904;28;20211;-80
2022/10/04 04:01:15;;;;;;;9.13;8.73;;;;;;;9.21;75.35;93055.22;5127560;28;20223;-80
2022/10/04 04:03:51;;;;;;;8.10;7.80;;;;;;;9.09;75.43;93046.09;5128079;28;20234;-80
2022/10/04 04:06:18;;;;;;;8.70;8.07;;;;;;;8.83;76.42;93014.00;5128957;28;20179;-80
2022/10/04 04:08:48;;;;;;;9.60;9.20;;;;;;;9.11;76.99;93054.41;5125213;28;20215;-83
2022/10/04 04:11:21;;;;;;;8.87;8.47;;;;;;;9.07;76.03;93055.97;5127767;28;20194;-83
2022/10/04 04:13:55;;;;;;;9.10;8.77;;;;;;;9.08;75.58;93060.16;5126362;28;20207;-84
2022/10/04 04:16:24;;;;;;;9.80;9.30;;;;;;;9.00;74.26;93037.22;5126003;28;20214;-88
2022/10/04 04:18:52;;;;;;;9.17;8.80;;;;;;;9.15;74.68;93074.47;5122945;28;20271;-83
2022/10/04 04:21:22;;;;;;;9.57;9.17;;;;;;;9.01;74.54;93060.38;5128564;28;20171;-83
2022/10/04 04:23:54;;;;;;;10.83;10.17;;;;;;;9.09;73.39;93061.72;5130173;28;21237;-81
2022/10/04 04:26:28;;;;;;;9.30;8.90;;;;;;;9.17;73.55;93084.63;5132608;28;20175;-84
2022/10/04 04:29:12;;;;;;;9.37;9.03;;;;;;;9.20;73.00;93086.72;5130810;28;20345;-81
2022/10/04 04:32:28;;;;;;;9.40;9.10;;;;;;;9.13;73.55;93083.59;5129560;28;20198;-78
2022/10/04 04:34:59;;;;;;;10.20;9.70;;;;;;;9.17;72.81;93080.22;5064438;28;20185;-75
2022/10/04 04:37:25;;;;;;;10.13;9.73;;;;;;;9.16;74.25;93085.69;5066932;28;20233;-78
2022/10/04 04:39:54;;;;;;;9.53;9.13;;;;;;;9.02;73.96;93072.38;5097802;28;20257;-76
2022/10/04 04:42:33;;;;;;;10.37;9.73;;;;;;;9.18;73.85;93081.00;5130799;28;20227;-76
2022/10/04 04:45:01;;;;;;;8.73;8.40;;;;;;;9.19;73.71;93092.97;5130537;27;20183;-82
2022/10/04 04:47:57;;;;;;;9.83;9.43;;;;;;;9.27;73.00;93087.28;5130109;28;20302;-79
2022/10/04 04:50:31;;;;;;;10.37;9.77;;;;;;;9.31;73.09;93090.91;5116484;28;20238;-77
2022/10/04 04:53:13;;;;;;;8.90;8.40;;;;;;;9.38;72.32;93092.25;5130683;28;20256;-80
2022/10/04 04:55:42;;;;;;;9.50;9.00;;;;;;;9.35;71.89;93089.38;5132325;28;20208;-78
2022/10/04 04:58:18;;;;;;;10.03;9.43;;;;;;;9.42;71.95;93100.31;5129514;28;20223;-79
2022/10/04 05:00:52;;;;;;;10.00;9.60;;;;;;;9.53;71.97;93107.09;5131651;28;20214;-79
2022/10/04 05:03:18;;;;;;;9.83;9.33;;;;;;;9.43;72.42;93083.66;5129895;28;20233;-82
2022/10/04 05:05:48;;;;;;;10.37;9.90;;;;;;;9.44;74.10;93067.75;5131800;27;20179;-77
2022/10/04 05:08:26;;;;;;;9.87;9.47;;;;;;;9.59;71.80;93075.56;5129558;28;20235;-78
2022/10/04 05:11:04;;;;;;;9.90;9.50;;;;;;;9.78;72.39;93112.34;5127993;28;20176;-77
2022/10/04 05:13:59;;;;;;;10.47;9.93;;;;;;;9.60;73.79;93094.63;5131671;27;20211;-79
2022/10/04 05:16:51;;;;;;;10.10;9.70;;;;;;;9.63;74.16;93115.72;5130187;28;20184;-78
2022/10/04 05:19:20;;;;;;;10.07;9.67;;;;;;;9.72;73.47;93097.75;5129745;28;20216;-78
2022/10/04 05:21:47;;;;;;;10.90;10.40;;;;;;;9.89;73.81;93111.28;5130802;28;20885;-78
2022/10/04 05:24:27;;;;;;;9.50;9.10;;;;;;;9.69;73.29;93087.84;5130775;28;20243;-78
2022/10/04 05:26:57;;;;;;;11.07;10.33;;;;;;;9.87;72.84;93121.19;5128718;28;20223;-78
2022/10/04 05:29:26;;;;;;;10.27;9.77;;;;;;;10.16;72.87;93118.88;5132251;28;20921;-78
2022/10/04 05:32:02;;;;;;;9.87;9.33;;;;;;;10.12;73.21;93121.22;5131414;28;21643;-78
2022/10/04 05:34:32;;;;;;;9.60;9.20;;;;;;;10.04;72.27;93121.72;5129051;28;20178;-78
2022/10/04 05:37:21;;;;;;;10.93;10.27;;;;;;;9.98;72.65;93130.59;5129100;28;20234;-84
2022/10/04 05:40:05;;;;;;;10.27;9.87;;;;;;;9.86;72.77;93130.06;5130307;28;20219;-77
2022/10/04 05:42:40;;;;;;;8.70;8.20;;;;;;;9.91;72.94;93124.84;5131070;27;20234;-77
2022/10/04 05:45:19;;;;;;;8.77;8.40;;;;;;;9.92;72.04;93139.44;5131355;27;20183;-80
2022/10/04 05:47:56;;;;;;;9.53;9.07;;;;;;;9.81;72.17;93117.03;5131137;28;20226;-74
2022/10/04 05:50:35;;;;;;;10.10;9.70;;;;;;;9.86;72.00;93122.25;5128775;28;20581;-80
2022/10/04 05:53:31;;;;;;;9.73;9.17;;;;;;;9.82;72.07;93138.69;5127327;28;20223;-81
2022/10/04 05:55:57;;;;;;;8.87;8.57;;;;;;;9.84;72.07;93144.44;5130264;27;20190;-86
2022/10/04 05:58:58;;;;;;;10.03;9.53;;;;;;;10.02;72.40;93143.88;5127742;28;20235;-82
2022/10/04 06:01:36;;;;;;;10.17;9.77;;;;;;;9.96;71.57;93152.75;5126259;28;20207;-77
2022/10/04 06:04:41;;;;;;;9.40;9.00;;;;;;;9.87;71.23;93136.06;5126894;28;20233;-77
2022/10/04 06:07:39;;;;;;;9.87;9.43;;;;;;;10.07;70.57;93162.94;5123937;28;20237;-78
2022/10/04 06:10:41;;;;;;;9.87;9.37;;;;;;;10.40;69.95;93162.41;5130082;28;20241;-77
2022/10/04 06:13:19;;;;;;;10.17;9.60;;;;;;;10.29;69.52;93165.31;5130315;28;20734;-77
2022/10/04 06:16:03;;;;;;;9.07;8.67;;;;;;;10.15;70.70;93172.88;5130673;28;20176;-83
2022/10/04 06:18:31;;;;;;;10.23;9.83;;;;;;;10.14;71.19;93175.72;5122439;28;20237;-75
2022/10/04 06:21:05;;;;;;;10.27;9.87;;;;;;;9.68;71.02;93125.38;5128266;28;20199;-76
2022/10/04 06:23:36;;;;;;;9.50;9.00;;;;;;;10.04;71.47;93181.69;5127718;28;20381;-78
2022/10/04 06:26:10;;;;;;;9.57;9.17;;;;;;;9.99;70.55;93160.06;5129961;28;20187;-80
2022/10/04 06:28:41;;;;;;;10.03;9.63;;;;;;;10.16;71.61;93192.72;5129139;28;20234;-77
2022/10/04 06:31:43;;;;;;;9.50;9.13;;;;;;;10.13;72.11;93180.19;5129647;28;20194;-78
2022/10/04 06:34:32;;;;;;;9.53;9.13;;;;;;;10.40;71.30;93198.16;5129988;28;20199;-77
2022/10/04 06:37:10;;;;;;;9.97;9.57;;;;;;;10.39;69.82;93194.78;5129881;28;20218;-73
2022/10/04 06:40:08;;;;;;;9.50;8.93;;;;;;;10.46;70.07;93205.72;5129482;28;20199;-71
2022/10/04 06:42:43;;;;;;;9.30;8.90;;;;;;;10.71;68.19;93194.44;5128577;28;20227;-71
2022/10/04 06:45:46;;;;;;;9.10;8.80;;;;;;;10.66;67.85;93197.09;5129647;28;20179;-74
2022/10/04 06:48:17;;;;;;;9.60;8.83;;;;;;;10.56;68.60;93208.34;5127525;28;20226;-75
2022/10/04 06:50:51;;;;;;;10.13;9.73;;;;;;;10.73;67.98;93195.78;5129134;28;20195;-74
2022/10/04 06:53:20;;;;;;;8.57;8.27;;;;;;;11.01;65.67;93204.84;5129388;27;21154;-74
2022/10/04 06:56:03;;;;;;;9.37;8.57;;;;;;;11.51;66.20;93203.84;5129117;28;20195;-75
2022/10/04 06:58:47;;;;;;;9.47;9.13;;;;;;;11.65;64.71;93205.66;5125172;28;20878;-74
2022/10/04 07:01:33;;;;;;;9.53;8.80;;;;;;;12.01;63.82;93211.44;5127830;28;20310;-74
2022/10/04 07:04:10;;;;;;;8.90;8.60;;;;;;;11.70;63.44;93210.06;5128701;28;20275;-74
2022/10/04 07:07:22;;;;;;;12.67;11.77;;;;;;;11.44;65.09;93196.28;5124008;28;20192;-74
2022/10/04 07:09:46;;;;;;;8.60;8.30;;;;;;;11.23;65.18;93213.13;5127758;28;20212;-74
2022/10/04 07:12:16;;;;;;;9.03;8.63;;;;;;;11.05;65.92;93211.13;5127461;28;20318;-73
2022/10/04 07:14:50;;;;;;;10.17;9.53;;;;;;;11.10;66.77;93206.63;5128244;28;20203;-74
2022/10/04 07:17:27;;;;;;;8.90;8.60;;;;;;;11.14;66.02;93210.28;5128999;28;20241;-71
2022/10/04 07:19:54;;;;;;;9.07;8.67;;;;;;;11.99;64.78;93211.72;5127158;28;20256;-73
2022/10/04 07:22:29;;;;;;;9.13;8.67;;;;;;;12.20;65.52;93230.69;5127922;28;20298;-74
2022/10/04 07:25:01;;;;;;;9.90;9.30;;;;;;;12.01;65.11;93225.31;5128867;28;20175;-73
2022/10/04 07:27:35;;;;;;;8.87;8.57;;;;;;;11.80;65.18;93220.50;5127340;28;20232;-75
2022/10/04 07:30:20;;;;;;;9.80;9.40;;;;;;;11.73;64.34;93227.84;5129472;28;20183;-73
2022/10/04 07:32:50;;;;;;;8.90;8.40;;;;;;;11.79;65.02;93222.31;5126747;28;20226;-73
2022/10/04 07:35:38;;;;;;;9.03;8.73;;;;;;;11.75;63.09;93204.81;5126869;28;20221;-75
2022/10/04 07:38:14;;;;;;;8.30;8.00;;;;;;;12.08;64.36;93240.69;5126117;28;20251;-75
2022/10/04 07:41:02;;;;;;;8.80;8.30;;;;;;;12.13;63.07;93254.53;5125686;28;20230;-75
2022/10/04 07:43:35;;;;;;;9.40;8.90;;;;;;;11.77;63.35;93232.25;5124951;28;20230;-74
2022/10/04 07:46:13;;;;;;;9.63;9.23;;;;;;;11.75;65.27;93241.44;5126254;28;20186;-75
2022/10/04 07:48:42;;;;;;;9.10;8.60;;;;;;;12.09;64.53;93247.50;5126994;28;20309;-74
2022/10/04 07:51:35;;;;;;;9.20;8.80;;;;;;;11.87;63.82;93249.72;5127974;28;20191;-75
2022/10/04 07:54:21;;;;;;;10.20;9.67;;;;;;;11.08;64.47;93205.34;5128224;28;20214;-74
2022/10/04 07:56:59;;;;;;;9.90;9.40;;;;;;;11.59;66.08;93250.38;5126552;28;20238;-75
2022/10/04 07:59:39;;;;;;;10.00;9.60;;;;;;;11.76;64.95;93250.84;5127975;27;20231;-74
2022/10/04 08:02:21;;;;;;;9.70;9.13;;;;;;;11.70;64.69;93246.69;5127824;28;20246;-73
2022/10/04 08:05:07;;;;;;;9.80;9.40;;;;;;;11.56;64.74;93258.75;5129017;28;20243;-74
2022/10/04 08:07:55;;;;;;;9.63;9.23;;;;;;;11.81;64.59;93251.59;5125298;28;20219;-73
2022/10/04 08:10:25;;;;;;;9.20;8.90;;;;;;;11.85;64.26;93246.59;5127285;28;20187;-73
2022/10/04 08:13:04;;;;;;;9.90;9.30;;;;;;;12.18;63.11;93246.66;5126137;28;20224;-73
2022/10/04 08:15:39;;;;;;;10.10;9.60;;;;;;;12.60;64.83;93253.94;5128029;28;20183;-73
2022/10/04 08:18:13;;;;;;;9.13;8.73;;;;;;;12.52;61.30;93252.69;5126975;28;20244;-73
2022/10/04 08:21:06;;;;;;;9.03;8.43;;;;;;;12.26;61.60;93247.91;5127005;28;20214;-72
2022/10/04 08:23:55;;;;;;;9.83;9.30;;;;;;;12.57;61.53;93257.13;5123403;28;20310;-73
2022/10/04 08:26:39;;;;;;;8.73;8.40;;;;;;;12.61;62.29;93250.25;5126845;28;20209;-73
2022/10/04 08:29:42;;;;;;;9.90;9.13;;;;;;;12.55;63.00;93256.59;5125542;28;20295;-72
2022/10/04 08:32:22;;;;;;;9.53;9.03;;;;;;;12.97;61.33;93246.28;5126802;28;20224;-74
2022/10/04 08:35:15;;;;;;;9.40;9.00;;;;;;;12.80;59.90;93253.78;5127599;28;20199;-74
2022/10/04 08:38:02;;;;;;;8.40;8.10;;;;;;;12.18;61.41;93224.94;5126652;28;20988;-73
2022/10/04 08:40:38;;;;;;;8.47;7.97;;;;;;;12.17;62.79;93254.78;5127868;28;20219;-73
2022/10/04 08:43:36;;;;;;;8.77;8.47;;;;;;;12.61;62.50;93250.25;5124308;28;20223;-75
2022/10/04 08:46:02;;;;;;;9.60;9.10;;;;;;;12.79;61.31;93239.13;5142953;28;20195;-74
2022/10/04 08:48:41;;;;;;;9.07;8.70;;;;;;;13.26;60.32;93246.28;5127385;28;20235;-74
2022/10/04 08:51:51;;;;;;;9.83;9.33;;;;;;;13.71;58.39;93249.13;5128394;28;20180;-74
2022/10/04 08:54:50;;;;;;;9.17;8.87;;;;;;;13.01;58.07;93257.81;5127570;28;20223;-73
2022/10/04 08:57:57;;;;;;;8.67;8.27;;;;;;;12.72;59.47;93243.88;5126712;28;20219;-74
2022/10/04 09:00:37;;;;;;;9.47;9.07;;;;;;;12.50;60.87;93228.59;5119466;28;20242;-75
2022/10/04 09:03:52;;;;;;;8.47;8.13;;;;;;;12.68;59.63;93237.63;5126754;28;20227;-73
2022/10/04 09:06:39;;;;;;;9.93;9.53;;;;;;;12.62;59.90;93236.13;5034086;28;20257;-73
2022/10/04 09:09:52;;;;;;;10.00;9.60;;;;;;;12.59;60.03;93237.44;5129742;28;20222;-74
2022/10/04 09:12:43;;;;;;;9.93;9.43;;;;;;;12.81;58.72;93214.19;5117451;27;20219;-77
2022/10/04 09:15:30;;;;;;;8.87;8.47;;;;;;;12.46;60.33;93247.78;5131257;28;20186;-79
2022/10/04 09:18:02;;;;;;;9.23;8.83;;;;;;;12.65;61.02;93236.34;5129150;27;20219;-77
2022/10/04 09:20:51;;;;;;;9.47;9.07;;;;;;;12.50;60.74;93240.91;5129207;28;20226;-77
2022/10/04 09:23:44;;;;;;;9.67;9.27;;;;;;;12.30;61.25;93226.16;5130086;28;20250;-78
2022/10/04 09:26:20;;;;;;;8.90;8.57;;;;;;;12.32;62.47;93246.81;5130402;28;20208;-77
2022/10/04 09:28:54;;;;;;;9.80;9.37;;;;;;;12.45;62.22;93244.34;5130190;28;20227;-77
2022/10/04 09:31:38;;;;;;;8.90;8.60;;;;;;;12.67;61.78;93244.72;5130835;28;20190;-77
2022/10/04 09:34:36;;;;;;;9.50;9.10;;;;;;;12.73;60.70;93232.34;5128991;27;20212;-78
2022/10/04 09:37:13;;;;;;;8.70;8.37;;;;;;;12.92;59.91;93267.28;5129762;28;20219;-79
2022/10/04 09:40:05;;;;;;;10.17;9.40;;;;;;;12.91;59.13;93257.84;5130389;28;20227;-77
2022/10/04 09:42:41;;;;;;;9.30;8.93;;;;;;;12.83;60.50;93258.44;5130636;28;20231;-79
2022/10/04 09:45:41;;;;;;;9.30;8.90;;;;;;;12.84;61.33;93273.91;5130372;28;20181;-78
2022/10/04 09:48:23;;;;;;;9.07;8.67;;;;;;;12.36;60.24;93195.47;5129265;28;20804;-78
2022/10/04 09:51:22;;;;;;;8.33;8.03;;;;;;;12.88;60.73;93258.41;5130428;28;20201;-75
2022/10/04 09:53:58;;;;;;;9.37;8.97;;;;;;;12.93;60.18;93226.94;5130184;28;20222;-78
2022/10/04 09:56:38;;;;;;;9.43;8.93;;;;;;;12.86;61.04;93247.41;5128601;28;20185;-79
2022/10/04 09:59:31;;;;;;;8.83;8.53;;;;;;;12.89;59.71;93252.91;5129832;28;20223;-77
2022/10/04 10:01:59;;;;;;;9.50;9.10;;;;;;;13.01;61.12;93247.31;5129772;28;21047;-77
2022/10/04 10:04:24;;;;;;;10.70;10.20;;;;;;;13.18;61.64;93246.88;5130194;28;20192;-78
2022/10/04 10:07:17;;;;;;;9.60;9.10;;;;;;;13.15;60.26;93261.34;5128763;28;20199;-77
2022/10/04 10:16:12;;;;;;;9.47;8.67;;;;;;;13.23;58.97;93263.34;5128340;28;20211;-80
2022/10/04 10:19:10;;;;;;;10.20;9.60;;;;;;;13.32;58.85;93245.94;5127875;28;20233;-80
2022/10/04 10:21:54;;;;;;;9.17;8.60;;;;;;;13.30;59.73;93265.63;5075146;27;21038;-79
2022/10/04 10:24:44;;;;;;;9.23;8.77;;;;;;;13.76;58.55;93256.19;5128532;28;20200;-80
2022/10/04 10:27:31;;;;;;;9.93;9.33;;;;;;;13.81;59.72;93253.47;5126403;28;20295;-80
2022/10/04 10:29:58;;;;;;;9.43;8.83;;;;;;;13.73;57.41;93251.47;5130509;28;20182;-80
2022/10/04 10:32:57;;;;;;;9.77;9.23;;;;;;;13.48;59.16;93263.06;5126927;28;20224;-80
2022/10/04 10:35:43;;;;;;;9.93;9.53;;;;;;;13.39;58.64;93256.88;5127351;28;20192;-80
2022/10/04 10:38:40;;;;;;;8.87;8.57;;;;;;;13.27;59.22;93261.72;5127635;28;20230;-80
2022/10/04 10:41:37;;;;;;;9.63;9.13;;;;;;;13.58;59.65;93259.53;5129664;28;20859;-79
2022/10/04 10:44:02;;;;;;;10.27;9.47;;;;;;;13.19;60.76;93270.19;5129184;28;20223;-80
2022/10/04 10:46:37;;;;;;;10.43;9.93;;;;;;;13.08;61.13;93267.94;5127845;28;20168;-80
2022/10/04 10:49:11;;;;;;;11.30;10.50;;;;;;;13.29;60.73;93269.31;5128735;27;20227;-80
2022/10/04 10:51:55;;;;;;;10.47;9.70;;;;;;;13.87;58.32;93274.13;5129581;28;20217;-80
2022/10/04 10:54:38;;;;;;;9.90;9.43;;;;;;;14.09;56.32;93265.72;5129198;28;20192;-82
2022/10/04 10:57:10;;;;;;;9.93;9.40;;;;;;;14.65;56.89;93270.97;5127706;28;20230;-79
2022/10/04 11:00:11;;;;;;;11.17;10.37;;;;;;;15.10;55.81;93273.63;5127434;28;20247;-80
2022/10/04 11:03:15;;;;;;;8.93;8.53;;;;;;;15.06;53.82;93270.03;5126609;28;20226;-79
2022/10/04 11:05:58;;;;;;;9.73;9.33;;;;;;;14.69;54.46;93274.59;5128743;28;20168;-80
2022/10/04 11:09:08;;;;;;;10.40;9.77;;;;;;;14.36;56.02;93277.19;5129192;28;20223;-79
2022/10/04 11:12:04;;;;;;;8.03;7.73;;;;;;;13.99;55.90;93274.50;5129232;28;20197;-81
2022/10/04 11:14:51;;;;;;;9.87;9.27;;;;;;;14.03;57.26;93272.88;5127435;28;20192;-80
2022/10/04 11:17:32;;;;;;;9.07;8.60;;;;;;;13.86;57.07;93280.47;5128339;28;20494;-80
2022/10/04 11:20:23;;;;;;;9.93;9.40;;;;;;;13.92;57.75;93270.66;5146323;27;20214;-80
2022/10/04 11:23:00;;;;;;;8.60;8.20;;;;;;;14.02;56.82;93276.56;5129974;28;20223;-80
2022/10/04 11:25:40;;;;;;;9.00;8.50;;;;;;;13.27;58.84;93232.88;5128259;28;20182;-80
2022/10/04 11:28:17;;;;;;;10.27;9.67;;;;;;;13.81;58.70;93283.13;5129079;28;20227;-80
2022/10/04 11:30:57;;;;;;;9.80;9.20;;;;;;;13.60;59.80;93273.97;5128125;28;20194;-80
2022/10/04 11:33:34;;;;;;;10.37;9.87;;;;;;;13.38;58.80;93280.75;5127435;27;20246;-80
2022/10/04 11:36:29;;;;;;;9.77;9.37;;;;;;;13.06;60.89;93288.44;5127538;28;20190;-81
2022/10/04 11:39:15;;;;;;;9.63;9.23;;;;;;;12.97;60.96;93277.72;5127778;28;20222;-80
2022/10/04 11:41:43;;;;;;;10.07;9.47;;;;;;;13.02;62.15;93287.41;5126701;28;20203;-80
2022/10/04 11:44:33;;;;;;;9.83;9.43;;;;;;;13.09;61.93;93280.78;5128069;28;20167;-79
2022/10/04 11:47:17;;;;;;;9.20;8.70;;;;;;;12.94;60.88;93254.69;5125132;27;20235;-79
2022/10/04 11:49:49;;;;;;;10.17;9.60;;;;;;;12.84;60.71;93257.41;5129314;28;20184;-80
2022/10/04 11:52:29;;;;;;;10.23;9.77;;;;;;;13.37;60.47;93290.47;5128860;28;20799;-80
2022/10/04 11:55:26;;;;;;;8.83;8.43;;;;;;;13.22;61.81;93292.44;5128726;28;20182;-80
2022/10/04 11:58:01;;;;;;;9.47;8.87;;;;;;;13.02;59.64;93267.22;5127181;28;21132;-79
2022/10/04 12:00:53;;;;;;;9.60;9.00;;;;;;;13.33;61.13;93289.47;5128541;28;20231;-79
2022/10/04 12:03:21;;;;;;;9.37;8.77;;;;;;;13.68;58.90;93281.19;5126875;28;20223;-80
2022/10/04 12:05:50;;;;;;;9.93;9.53;;;;;;;13.78;58.44;93288.94;5127013;28;20676;-80
2022/10/04 12:08:36;;;;;;;10.00;9.50;;;;;;;13.38;59.82;93238.78;5127692;28;20243;-80
2022/10/04 12:12:35;;;;;;;10.20;9.60;;;;;;;13.44;59.71;93290.91;5127255;28;20187;-80
2022/10/04 12:14:30;;;;;;;11.07;10.47;;;;;;;13.43;57.77;93260.47;5125751;28;20320;-80
2022/10/04 12:17:10;;;;;;;8.97;8.60;;;;;;;13.39;57.90;93269.19;5127421;28;20234;-80
2022/10/04 12:19:41;;;;;;;9.97;9.57;;;;;;;13.81;57.54;93279.72;5127185;28;20258;-79
2022/10/04 12:22:37;;;;;;;9.60;9.10;;;;;;;13.70;58.23;93289.56;5128748;28;20257;-80
2022/10/04 12:25:22;;;;;;;9.13;8.73;;;;;;;13.64;58.19;93284.66;5128893;28;20200;-79
2022/10/04 12:27:51;;;;;;;9.63;9.23;;;;;;;13.39;58.44;93282.31;5128416;28;20207;-80
2022/10/04 12:30:36;;;;;;;11.10;10.20;;;;;;;13.36;59.80;93278.41;5127884;28;20215;-80
2022/10/04 12:33:29;;;;;;;8.80;8.40;;;;;;;13.70;59.53;93279.06;5123445;28;20230;-80
2022/10/04 12:36:12;;;;;;;10.03;9.57;;;;;;;13.74;59.83;93269.56;5128848;28;20184;-79
2022/10/04 12:39:06;;;;;;;9.93;9.43;;;;;;;13.77;58.89;93290.03;5127077;28;20234;-80